ELY777 KSFO-LLBG
Flight info
| Callsign | ELY777 |
|---|---|
| Flight time | N/A |
| Altitude | 31000 |
| Route | TRUKN2 ORRCA Q120 GALLI DCT ROOHZ DCT OLNUE DCT ALVIL DCT LNCER DCT SCOFY DCT SHYLS/N0491F330 DCT FAR DCT HABSA DCT YQT DCT 50N080W 52N070W 53N060W DCT KODIK/M084F330 DCT 54N050W 54N040W 54N030W 54N020W DCT DOGAL/N0483F330 DCT BEXET/N0480F370 DCT DEXEN UY124 DOLOP DCT KEPAD L15 MOTOX DCT RUCAC DCT LESDO DCT BUBLI DCT LUVAL DCT SHARA DCT DEVDI DCT RIPUS DCT RESIA DCT PEVAL DCT MSR DCT ENFAR/N0473F390 DCT TALAS UN130 MES UL609 ALKIS L609 ZUKKO |
| Aircraft | B772/H-SDE2E3FGHIJ5LORVWXY/LB1D1 |
Departure
| Time | N/A |
|---|---|
| Airport | San Francisco International Airport (KSFO) |
Arrival
| Time | 2026-05-05 20:05 |
|---|---|
| Airport | Ben Gurion International Airport (LLBG) |
| Time | Latitude | Longitude | Altitude | Speed | Heading |
|---|---|---|---|---|---|
| 2026-05-05 19:43 | 32.96576 | 33.41101 | 30566 ft | 465 kts | 132° |
| 2026-05-05 19:44 | 32.94512 | 33.44212 | 28787 ft | 490 kts | 132° |
| 2026-05-05 19:44 | 32.92375 | 33.47435 | 27661 ft | 497 kts | 131° |
| 2026-05-05 19:44 | 32.90255 | 33.50662 | 26869 ft | 494 kts | 131° |
| 2026-05-05 19:44 | 32.88149 | 33.53883 | 26223 ft | 488 kts | 130° |
| 2026-05-05 19:45 | 32.86093 | 33.57029 | 25648 ft | 480 kts | 130° |
| 2026-05-05 19:45 | 32.84050 | 33.60143 | 25083 ft | 472 kts | 130° |
| 2026-05-05 19:45 | 32.82013 | 33.63171 | 24494 ft | 465 kts | 133° |
| 2026-05-05 19:45 | 32.79835 | 33.65982 | 23899 ft | 458 kts | 136° |
| 2026-05-05 19:46 | 32.77620 | 33.68681 | 23244 ft | 453 kts | 137° |
| 2026-05-05 19:46 | 32.75427 | 33.71325 | 22516 ft | 449 kts | 137° |
| 2026-05-05 19:46 | 32.73248 | 33.73963 | 21751 ft | 447 kts | 137° |
| 2026-05-05 19:46 | 32.71111 | 33.76568 | 21050 ft | 444 kts | 136° |
| 2026-05-05 19:47 | 32.68982 | 33.79181 | 20419 ft | 440 kts | 136° |
| 2026-05-05 19:47 | 32.66863 | 33.81789 | 19824 ft | 435 kts | 136° |
| 2026-05-05 19:47 | 32.64779 | 33.84356 | 19250 ft | 431 kts | 136° |
| 2026-05-05 19:47 | 32.62712 | 33.86901 | 18651 ft | 427 kts | 136° |
| 2026-05-05 19:48 | 32.60655 | 33.89430 | 18033 ft | 424 kts | 136° |
| 2026-05-05 19:48 | 32.58617 | 33.91933 | 17393 ft | 420 kts | 136° |
| 2026-05-05 19:48 | 32.56588 | 33.94422 | 16775 ft | 417 kts | 136° |
| 2026-05-05 19:48 | 32.54595 | 33.96883 | 16173 ft | 413 kts | 136° |
| 2026-05-05 19:49 | 32.52612 | 33.99359 | 15605 ft | 410 kts | 135° |
| 2026-05-05 19:49 | 32.51318 | 34.00978 | 15224 ft | 408 kts | 135° |
| 2026-05-05 19:49 | 32.48716 | 34.04231 | 14461 ft | 404 kts | 135° |
| 2026-05-05 19:49 | 32.46788 | 34.06634 | 13904 ft | 401 kts | 135° |
| 2026-05-05 19:50 | 32.44886 | 34.09002 | 13635 ft | 391 kts | 135° |
| 2026-05-05 19:50 | 32.43193 | 34.11399 | 13483 ft | 372 kts | 122° |
| 2026-05-05 19:50 | 32.42269 | 34.14195 | 13388 ft | 356 kts | 102° |
| 2026-05-05 19:50 | 32.41810 | 34.17004 | 13278 ft | 342 kts | 101° |
| 2026-05-05 19:51 | 32.41358 | 34.19682 | 13191 ft | 330 kts | 102° |
| 2026-05-05 19:51 | 32.40897 | 34.22323 | 13048 ft | 319 kts | 102° |
| 2026-05-05 19:51 | 32.40451 | 34.24832 | 12860 ft | 312 kts | 102° |
| 2026-05-05 19:51 | 32.40005 | 34.27321 | 12592 ft | 307 kts | 102° |
| 2026-05-05 19:52 | 32.39560 | 34.29792 | 12230 ft | 306 kts | 102° |
| 2026-05-05 19:52 | 32.39116 | 34.32253 | 11873 ft | 305 kts | 102° |
| 2026-05-05 19:52 | 32.38673 | 34.34702 | 11580 ft | 302 kts | 102° |
| 2026-05-05 19:52 | 32.38236 | 34.37117 | 11280 ft | 300 kts | 102° |
| 2026-05-05 19:53 | 32.37799 | 34.39531 | 10930 ft | 299 kts | 102° |
| 2026-05-05 19:53 | 32.37364 | 34.41930 | 10566 ft | 300 kts | 103° |
| 2026-05-05 19:53 | 32.36926 | 34.44340 | 10216 ft | 299 kts | 103° |
| 2026-05-05 19:53 | 32.36489 | 34.46748 | 9872 ft | 299 kts | 102° |
| 2026-05-05 19:54 | 32.36055 | 34.49130 | 9577 ft | 295 kts | 103° |
| 2026-05-05 19:54 | 32.35624 | 34.51497 | 9203 ft | 295 kts | 103° |
| 2026-05-05 19:54 | 32.35078 | 34.53797 | 8924 ft | 289 kts | 112° |
| 2026-05-05 19:54 | 32.34303 | 34.55951 | 8674 ft | 284 kts | 115° |
| 2026-05-05 19:55 | 32.33483 | 34.58074 | 8250 ft | 286 kts | 116° |
| 2026-05-05 19:55 | 32.32682 | 34.60163 | 7978 ft | 284 kts | 115° |
| 2026-05-05 19:55 | 32.31880 | 34.62299 | 7676 ft | 282 kts | 115° |
| 2026-05-05 19:55 | 32.31102 | 34.64404 | 7395 ft | 279 kts | 114° |
| 2026-05-05 19:56 | 32.30336 | 34.66502 | 7098 ft | 277 kts | 114° |
| 2026-05-05 19:56 | 32.29571 | 34.68602 | 6771 ft | 277 kts | 114° |
| 2026-05-05 19:56 | 32.28809 | 34.70693 | 6432 ft | 278 kts | 114° |
| 2026-05-05 19:56 | 32.28048 | 34.72784 | 6151 ft | 275 kts | 114° |
| 2026-05-05 19:57 | 32.27294 | 34.74853 | 5848 ft | 274 kts | 114° |
| 2026-05-05 19:57 | 32.26798 | 34.76211 | 5673 ft | 272 kts | 114° |
| 2026-05-05 19:57 | 32.25802 | 34.78940 | 5319 ft | 270 kts | 114° |
| 2026-05-05 19:57 | 32.25104 | 34.80990 | 5015 ft | 269 kts | 109° |
| 2026-05-05 19:58 | 32.24563 | 34.83082 | 4719 ft | 268 kts | 106° |
| 2026-05-05 19:58 | 32.24043 | 34.85197 | 4399 ft | 267 kts | 106° |
| 2026-05-05 19:58 | 32.23514 | 34.87294 | 4115 ft | 267 kts | 107° |
| 2026-05-05 19:58 | 32.22980 | 34.89376 | 3819 ft | 266 kts | 107° |
| 2026-05-05 19:59 | 32.22438 | 34.91471 | 3510 ft | 266 kts | 107° |
| 2026-05-05 19:59 | 32.21897 | 34.93554 | 3212 ft | 265 kts | 107° |
| 2026-05-05 19:59 | 32.21357 | 34.95627 | 2932 ft | 263 kts | 107° |
| 2026-05-05 19:59 | 32.20664 | 34.97523 | 2601 ft | 242 kts | 130° |
| 2026-05-05 20:00 | 32.19435 | 34.98628 | 2537 ft | 215 kts | 160° |
| 2026-05-05 20:00 | 32.18040 | 34.99129 | 2518 ft | 199 kts | 176° |
| 2026-05-05 20:00 | 32.16712 | 34.99151 | 2543 ft | 193 kts | 189° |
| 2026-05-05 20:00 | 32.15476 | 34.98755 | 2520 ft | 177 kts | 207° |
| 2026-05-05 20:01 | 32.14397 | 34.98156 | 2505 ft | 166 kts | 211° |
| 2026-05-05 20:01 | 32.13389 | 34.97527 | 2504 ft | 161 kts | 213° |
| 2026-05-05 20:01 | 32.12399 | 34.96890 | 2515 ft | 163 kts | 213° |
| 2026-05-05 20:01 | 32.11401 | 34.96243 | 2320 ft | 161 kts | 213° |
| 2026-05-05 20:02 | 32.10750 | 34.95820 | 2148 ft | 159 kts | 213° |
| 2026-05-05 20:02 | 32.09812 | 34.95210 | 1910 ft | 151 kts | 213° |
| 2026-05-05 20:02 | 32.08918 | 34.94629 | 1745 ft | 146 kts | 213° |
| 2026-05-05 20:02 | 32.08013 | 34.94041 | 1564 ft | 148 kts | 212° |
| 2026-05-05 20:03 | 32.07119 | 34.93462 | 1362 ft | 146 kts | 212° |
| 2026-05-05 20:03 | 32.06226 | 34.92882 | 1152 ft | 147 kts | 212° |
| 2026-05-05 20:03 | 32.05347 | 34.92309 | 879 ft | 141 kts | 212° |
| 2026-05-05 20:03 | 32.04457 | 34.91728 | 639 ft | 148 kts | 211° |
| 2026-05-05 20:04 | 32.03565 | 34.91156 | 465 ft | 143 kts | 211° |
| 2026-05-05 20:04 | 32.02710 | 34.90600 | 312 ft | 137 kts | 210° |
| 2026-05-05 20:04 | 32.01867 | 34.90054 | 169 ft | 140 kts | 209° |
| 2026-05-05 20:04 | 32.01102 | 34.89562 | 123 ft | 104 kts | 208° |
| 2026-05-05 20:05 | 32.00650 | 34.89269 | 120 ft | 57 kts | 209° |
| 2026-05-05 20:05 | 32.00306 | 34.89046 | 119 ft | 53 kts | 209° |
| 2026-05-05 20:05 | 32.00216 | 34.88976 | 119 ft | 39 kts | 224° |